Orlando Eugenio — CUDH8 — position and weather

sailwx.info

Track history (hours):
 
Tides and Currents Weather Stations Pressure Air Temp Water Temp Dewpoint Dewpoint Depression Visibility Wind Speed Wind Dir Waves Ship Positions

Orlando Eugenio

Last reported at 2017-Oct-10 11:36 UTC. Time now 2017-Oct-18 22:35 UTC.
Position N 41°11' W 008°42'.
Warning: this ship's position is 8 days out of date.

Length 23 m.

Type: Fishing. MMSI: 263401780.

Date/timePositionNaut miles runAvg speedWind from/ knotsBaromVisibWave heightAir tempDewpointWater temp
2017-Oct-10 11:36N 41°11' W 008°42'0 0.0
2017-Oct-10 11:25N 41°11' W 008°42'0 0.0
2017-Oct-10 11:01N 41°11' W 008°42'3 6.7
2017-Oct-10 10:30N 41°08' W 008°41'3 0.2
2017-Oct-09 22:29N 41°06' W 008°45'510.2
2017-Oct-09 22:01N 41°11' W 008°42'0 0.1
2017-Oct-09 21:31N 41°11' W 008°42'0 0.0
2017-Oct-09 21:01N 41°11' W 008°42'0 0.0
2017-Oct-09 08:13N 41°11' W 008°42'0 0.0
2017-Oct-09 08:01N 41°11' W 008°42'0 0.0
2017-Oct-09 07:30N 41°11' W 008°42'0 0.0
2017-Oct-09 07:01N 41°11' W 008°42'0 0.0
2017-Oct-09 06:31N 41°11' W 008°42'0 0.7
2017-Oct-09 06:01N 41°11' W 008°42'7 1.0
2017-Oct-08 23:30N 41°06' W 008°48'510.5
2017-Oct-08 23:00N 41°10' W 008°43'2 3.6
2017-Oct-08 22:31N 41°11' W 008°42'0 0.0
2017-Oct-08 22:01N 41°11' W 008°42'0 0.0
2017-Oct-08 21:31N 41°11' W 008°42'  
2017-Oct-06 07:37N 41°11' W 008°42'0 0.0
2017-Oct-06 07:30N 41°11' W 008°42'0 0.0
2017-Oct-06 07:00N 41°11' W 008°42'0 0.0
2017-Oct-06 06:30N 41°11' W 008°42'0 0.0
2017-Oct-06 06:00N 41°11' W 008°42'1 1.1
2017-Oct-06 05:30N 41°11' W 008°42'510.2
2017-Oct-06 05:00N 41°05' W 008°41'4 0.6
2017-Oct-05 22:26N 41°07' W 008°46'410.4
2017-Oct-05 22:00N 41°11' W 008°42'  
2017-Oct-03 09:48N 41°11' W 008°42'0 0.0
2017-Oct-03 09:30N 41°11' W 008°42'0 0.0
2017-Oct-03 09:00N 41°11' W 008°42'0 0.0
2017-Oct-03 08:30N 41°11' W 008°42'0 0.0
2017-Oct-03 08:00N 41°11' W 008°42'0 0.0
2017-Oct-03 07:30N 41°11' W 008°42'0 0.0
2017-Oct-03 07:00N 41°11' W 008°42'5 9.7
2017-Oct-03 06:30N 41°06' W 008°43'3 0.3
2017-Oct-02 22:38N 41°08' W 008°46'110.4
2017-Oct-02 22:30N 41°09' W 008°45'3 6.3
2017-Oct-02 22:00N 41°11' W 008°42'0 0.0
2017-Oct-02 21:30N 41°11' W 008°42'0 0.0
2017-Oct-02 08:26N 41°11' W 008°42'0 0.4
2017-Oct-02 08:00N 41°11' W 008°42'0 0.4
2017-Oct-02 07:30N 41°11' W 008°42'0 0.0
2017-Oct-02 07:00N 41°11' W 008°42'0 0.0
2017-Oct-02 06:30N 41°11' W 008°42'0 0.0
2017-Oct-02 06:00N 41°11' W 008°42'0 0.0
2017-Oct-02 05:30N 41°11' W 008°42'3 5.5
2017-Oct-02 05:00N 41°08' W 008°42'3 0.5
2017-Oct-01 23:28N 41°06' W 008°44'510.5
2017-Oct-01 23:00N 41°10' W 008°42'1 1.2
2017-Oct-01 22:30N 41°11' W 008°42'0 0.1
2017-Oct-01 22:00N 41°11' W 008°42'0 0.0
2017-Oct-01 21:30N 41°11' W 008°42'0 0.0
2017-Oct-01 21:00N 41°11' W 008°42'  
Track history (hours):
 
Tides and Currents Weather Stations Pressure Air Temp Water Temp Dewpoint Dewpoint Depression Visibility Wind Speed Wind Dir Waves Ship Positions

Orlando Eugenio

Last reported at 2017-Oct-10 11:36 UTC. Time now 2017-Oct-18 22:35 UTC.
Position N 41°11' W 008°42'.
Warning: this ship's position is 8 days out of date.

Length 23 m.

Type: Fishing. MMSI: 263401780.

Date/timePositionNaut miles runAvg speedWind from/ knotsBaromVisibWave heightAir tempDewpointWater temp
2017-Oct-10 11:36N 41°11' W 008°42'0 0.0
2017-Oct-10 11:25N 41°11' W 008°42'0 0.0
2017-Oct-10 11:01N 41°11' W 008°42'3 6.7
2017-Oct-10 10:30N 41°08' W 008°41'3 0.2
2017-Oct-09 22:29N 41°06' W 008°45'510.2
2017-Oct-09 22:01N 41°11' W 008°42'0 0.1
2017-Oct-09 21:31N 41°11' W 008°42'0 0.0
2017-Oct-09 21:01N 41°11' W 008°42'0 0.0
2017-Oct-09 08:13N 41°11' W 008°42'0 0.0
2017-Oct-09 08:01N 41°11' W 008°42'0 0.0
2017-Oct-09 07:30N 41°11' W 008°42'0 0.0
2017-Oct-09 07:01N 41°11' W 008°42'0 0.0
2017-Oct-09 06:31N 41°11' W 008°42'0 0.7
2017-Oct-09 06:01N 41°11' W 008°42'7 1.0
2017-Oct-08 23:30N 41°06' W 008°48'510.5
2017-Oct-08 23:00N 41°10' W 008°43'2 3.6
2017-Oct-08 22:31N 41°11' W 008°42'0 0.0
2017-Oct-08 22:01N 41°11' W 008°42'0 0.0
2017-Oct-08 21:31N 41°11' W 008°42'  
2017-Oct-06 07:37N 41°11' W 008°42'0 0.0
2017-Oct-06 07:30N 41°11' W 008°42'0 0.0
2017-Oct-06 07:00N 41°11' W 008°42'0 0.0
2017-Oct-06 06:30N 41°11' W 008°42'0 0.0
2017-Oct-06 06:00N 41°11' W 008°42'1 1.1
2017-Oct-06 05:30N 41°11' W 008°42'510.2
2017-Oct-06 05:00N 41°05' W 008°41'4 0.6
2017-Oct-05 22:26N 41°07' W 008°46'410.4
2017-Oct-05 22:00N 41°11' W 008°42'  
2017-Oct-03 09:48N 41°11' W 008°42'0 0.0
2017-Oct-03 09:30N 41°11' W 008°42'0 0.0
2017-Oct-03 09:00N 41°11' W 008°42'0 0.0
2017-Oct-03 08:30N 41°11' W 008°42'0 0.0
2017-Oct-03 08:00N 41°11' W 008°42'0 0.0
2017-Oct-03 07:30N 41°11' W 008°42'0 0.0
2017-Oct-03 07:00N 41°11' W 008°42'5 9.7
2017-Oct-03 06:30N 41°06' W 008°43'3 0.3
2017-Oct-02 22:38N 41°08' W 008°46'110.4
2017-Oct-02 22:30N 41°09' W 008°45'3 6.3
2017-Oct-02 22:00N 41°11' W 008°42'0 0.0
2017-Oct-02 21:30N 41°11' W 008°42'0 0.0
2017-Oct-02 08:26N 41°11' W 008°42'0 0.4
2017-Oct-02 08:00N 41°11' W 008°42'0 0.4
2017-Oct-02 07:30N 41°11' W 008°42'0 0.0
2017-Oct-02 07:00N 41°11' W 008°42'0 0.0
2017-Oct-02 06:30N 41°11' W 008°42'0 0.0
2017-Oct-02 06:00N 41°11' W 008°42'0 0.0
2017-Oct-02 05:30N 41°11' W 008°42'3 5.5
2017-Oct-02 05:00N 41°08' W 008°42'3 0.5
2017-Oct-01 23:28N 41°06' W 008°44'510.5
2017-Oct-01 23:00N 41°10' W 008°42'1 1.2
2017-Oct-01 22:30N 41°11' W 008°42'0 0.1
2017-Oct-01 22:00N 41°11' W 008°42'0 0.0
2017-Oct-01 21:30N 41°11' W 008°42'0 0.0
2017-Oct-01 21:00N 41°11' W 008°42'  

Dump ship's entire track history